sensor_id;sensor_type;location;lat;lon;timestamp;temperature;humidity
9265;DHT22;4669;49.594;10.958;2023-02-15T05:25:35;1.30;99.90
9265;DHT22;4669;49.594;10.958;2023-02-15T05:31:02;1.30;99.90
9265;DHT22;4669;49.594;10.958;2023-02-15T05:36:06;1.30;99.90
9265;DHT22;4669;49.594;10.958;2023-02-15T05:41:10;1.30;99.90
9265;DHT22;4669;49.594;10.958;2023-02-15T05:46:12;1.30;99.90
9265;DHT22;4669;49.594;10.958;2023-02-15T05:51:14;1.20;99.90
9265;DHT22;4669;49.594;10.958;2023-02-15T05:56:18;1.20;99.90
9265;DHT22;4669;49.594;10.958;2023-02-15T06:01:20;1.20;99.90
9265;DHT22;4669;49.594;10.958;2023-02-15T06:06:23;1.10;99.90
9265;DHT22;4669;49.594;10.958;2023-02-15T06:11:26;1.10;99.90
9265;DHT22;4669;49.594;10.958;2023-02-15T06:16:29;1.10;99.90
9265;DHT22;4669;49.594;10.958;2023-02-15T06:21:31;1.00;99.90
9265;DHT22;4669;49.594;10.958;2023-02-15T06:26:34;1.00;99.90
9265;DHT22;4669;49.594;10.958;2023-02-15T06:31:36;1.00;99.90
9265;DHT22;4669;49.594;10.958;2023-02-15T06:36:38;1.00;99.90
9265;DHT22;4669;49.594;10.958;2023-02-15T06:41:41;0.90;99.90
9265;DHT22;4669;49.594;10.958;2023-02-15T06:46:43;0.90;99.90
9265;DHT22;4669;49.594;10.958;2023-02-15T06:51:46;0.90;99.90
9265;DHT22;4669;49.594;10.958;2023-02-15T06:56:49;0.80;99.90
9265;DHT22;4669;49.594;10.958;2023-02-15T07:01:51;0.80;99.90
9265;DHT22;4669;49.594;10.958;2023-02-15T07:06:53;0.90;99.90
9265;DHT22;4669;49.594;10.958;2023-02-15T07:11:57;0.90;99.90
9265;DHT22;4669;49.594;10.958;2023-02-15T07:17:16;0.90;99.90
9265;DHT22;4669;49.594;10.958;2023-02-15T07:22:18;0.90;99.90
9265;DHT22;4669;49.594;10.958;2023-02-15T07:27:21;0.90;99.90
9265;DHT22;4669;49.594;10.958;2023-02-15T07:32:23;0.90;99.90
9265;DHT22;4669;49.594;10.958;2023-02-15T07:37:28;1.00;99.90
9265;DHT22;4669;49.594;10.958;2023-02-15T07:42:32;0.90;99.90
9265;DHT22;4669;49.594;10.958;2023-02-15T07:47:33;0.90;99.90
9265;DHT22;4669;49.594;10.958;2023-02-15T07:52:35;0.90;99.90
9265;DHT22;4669;49.594;10.958;2023-02-15T07:57:42;1.00;99.90
9265;DHT22;4669;49.594;10.958;2023-02-15T08:02:48;0.90;99.90
9265;DHT22;4669;49.594;10.958;2023-02-15T08:08:11;0.90;99.90
9265;DHT22;4669;49.594;10.958;2023-02-15T08:13:31;1.00;99.90
9265;DHT22;4669;49.594;10.958;2023-02-15T08:18:33;1.00;99.90
9265;DHT22;4669;49.594;10.958;2023-02-15T08:23:35;1.00;99.90
9265;DHT22;4669;49.594;10.958;2023-02-15T08:28:39;1.10;99.90
9265;DHT22;4669;49.594;10.958;2023-02-15T08:33:42;1.20;99.90
9265;DHT22;4669;49.594;10.958;2023-02-15T08:38:45;1.20;99.90
9265;DHT22;4669;49.594;10.958;2023-02-15T08:43:50;1.30;99.90
9265;DHT22;4669;49.594;10.958;2023-02-15T08:48:54;1.30;99.90
9265;DHT22;4669;49.594;10.958;2023-02-15T08:53:58;1.20;99.90
9265;DHT22;4669;49.594;10.958;2023-02-15T08:59:02;1.30;99.90
9265;DHT22;4669;49.594;10.958;2023-02-15T09:04:06;1.30;99.90
9265;DHT22;4669;49.594;10.958;2023-02-15T09:09:10;1.40;99.90
9265;DHT22;4669;49.594;10.958;2023-02-15T09:14:15;1.40;99.90
9265;DHT22;4669;49.594;10.958;2023-02-15T09:19:18;1.40;99.90
9265;DHT22;4669;49.594;10.958;2023-02-15T09:24:20;1.40;99.90
9265;DHT22;4669;49.594;10.958;2023-02-15T09:29:24;1.50;99.90
9265;DHT22;4669;49.594;10.958;2023-02-15T09:34:26;1.50;99.90
9265;DHT22;4669;49.594;10.958;2023-02-15T09:39:28;1.60;99.90
9265;DHT22;4669;49.594;10.958;2023-02-15T09:50:03;1.70;99.90
9265;DHT22;4669;49.594;10.958;2023-02-15T09:55:22;1.70;99.90
9265;DHT22;4669;49.594;10.958;2023-02-15T10:00:33;1.70;99.90
9265;DHT22;4669;49.594;10.958;2023-02-15T10:05:50;1.70;99.90
9265;DHT22;4669;49.594;10.958;2023-02-15T10:11:02;1.70;99.90
9265;DHT22;4669;49.594;10.958;2023-02-15T10:16:26;1.80;99.90
9265;DHT22;4669;49.594;10.958;2023-02-15T10:21:42;1.90;99.90
9265;DHT22;4669;49.594;10.958;2023-02-15T10:26:50;1.90;99.90
9265;DHT22;4669;49.594;10.958;2023-02-15T10:32:00;1.90;99.90
9265;DHT22;4669;49.594;10.958;2023-02-15T10:37:27;2.00;99.90
9265;DHT22;4669;49.594;10.958;2023-02-15T10:42:43;2.00;99.90
9265;DHT22;4669;49.594;10.958;2023-02-15T10:48:07;2.20;99.90
9265;DHT22;4669;49.594;10.958;2023-02-15T10:53:24;2.20;99.90
9265;DHT22;4669;49.594;10.958;2023-02-15T10:58:38;2.30;99.90
9265;DHT22;4669;49.594;10.958;2023-02-15T11:04:05;2.40;99.90
9265;DHT22;4669;49.594;10.958;2023-02-15T11:09:12;2.50;99.90
9265;DHT22;4669;49.594;10.958;2023-02-15T11:14:20;2.60;99.90
9265;DHT22;4669;49.594;10.958;2023-02-15T11:19:28;2.70;99.90
9265;DHT22;4669;49.594;10.958;2023-02-15T11:24:36;2.70;99.90
9265;DHT22;4669;49.594;10.958;2023-02-15T11:29:41;2.70;99.90
9265;DHT22;4669;49.594;10.958;2023-02-15T11:34:49;2.80;99.90
9265;DHT22;4669;49.594;10.958;2023-02-15T11:39:53;2.90;99.90
9265;DHT22;4669;49.594;10.958;2023-02-15T11:45:00;3.00;99.90
9265;DHT22;4669;49.594;10.958;2023-02-15T11:50:10;3.10;99.90
9265;DHT22;4669;49.594;10.958;2023-02-15T11:55:16;3.30;99.90
9265;DHT22;4669;49.594;10.958;2023-02-15T12:00:27;3.30;99.90
9265;DHT22;4669;49.594;10.958;2023-02-15T12:05:40;3.50;99.90
9265;DHT22;4669;49.594;10.958;2023-02-15T12:10:57;3.50;99.90
9265;DHT22;4669;49.594;10.958;2023-02-15T12:16:06;3.40;99.90
9265;DHT22;4669;49.594;10.958;2023-02-15T12:21:15;3.40;99.90
9265;DHT22;4669;49.594;10.958;2023-02-15T12:26:24;3.40;99.90
9265;DHT22;4669;49.594;10.958;2023-02-15T12:31:30;3.40;99.90
9265;DHT22;4669;49.594;10.958;2023-02-15T12:36:41;3.40;99.90
9265;DHT22;4669;49.594;10.958;2023-02-15T12:41:46;3.50;99.90
9265;DHT22;4669;49.594;10.958;2023-02-15T12:47:00;3.50;99.90
9265;DHT22;4669;49.594;10.958;2023-02-15T12:52:05;3.70;99.90
9265;DHT22;4669;49.594;10.958;2023-02-15T12:57:30;3.70;99.90
9265;DHT22;4669;49.594;10.958;2023-02-15T13:02:40;3.90;99.90
9265;DHT22;4669;49.594;10.958;2023-02-15T13:07:48;4.00;99.90
9265;DHT22;4669;49.594;10.958;2023-02-15T13:12:52;4.10;99.90
9265;DHT22;4669;49.594;10.958;2023-02-15T13:17:55;4.10;99.90
9265;DHT22;4669;49.594;10.958;2023-02-15T13:23:02;4.20;99.90
9265;DHT22;4669;49.594;10.958;2023-02-15T13:28:10;4.40;99.90
9265;DHT22;4669;49.594;10.958;2023-02-15T13:33:17;4.50;99.90
9265;DHT22;4669;49.594;10.958;2023-02-15T13:38:37;4.50;99.90
9265;DHT22;4669;49.594;10.958;2023-02-15T13:43:50;4.50;99.90
9265;DHT22;4669;49.594;10.958;2023-02-15T13:49:03;4.70;99.90
9265;DHT22;4669;49.594;10.958;2023-02-15T13:54:47;4.90;99.90
9265;DHT22;4669;49.594;10.958;2023-02-15T14:00:02;4.80;99.90
9265;DHT22;4669;49.594;10.958;2023-02-15T14:05:43;4.70;99.90
9265;DHT22;4669;49.594;10.958;2023-02-15T14:10:59;4.70;99.90
9265;DHT22;4669;49.594;10.958;2023-02-15T14:16:06;4.50;99.90
9265;DHT22;4669;49.594;10.958;2023-02-15T14:21:15;4.60;99.90
9265;DHT22;4669;49.594;10.958;2023-02-15T14:26:25;4.70;99.90
9265;DHT22;4669;49.594;10.958;2023-02-15T14:31:36;4.70;99.90
9265;DHT22;4669;49.594;10.958;2023-02-15T14:36:39;4.90;99.90
9265;DHT22;4669;49.594;10.958;2023-02-15T14:41:45;5.10;99.90
9265;DHT22;4669;49.594;10.958;2023-02-15T14:46:56;5.40;99.90
9265;DHT22;4669;49.594;10.958;2023-02-15T14:52:04;5.40;99.90
9265;DHT22;4669;49.594;10.958;2023-02-15T14:57:29;5.20;99.90
9265;DHT22;4669;49.594;10.958;2023-02-15T15:02:44;5.10;99.90
9265;DHT22;4669;49.594;10.958;2023-02-15T15:07:49;5.10;99.90
9265;DHT22;4669;49.594;10.958;2023-02-15T15:12:54;4.90;99.90
9265;DHT22;4669;49.594;10.958;2023-02-15T15:17:59;4.70;99.90
9265;DHT22;4669;49.594;10.958;2023-02-15T15:29:01;4.50;99.90
9265;DHT22;4669;49.594;10.958;2023-02-15T15:34:19;4.40;99.90
9265;DHT22;4669;49.594;10.958;2023-02-15T15:39:50;4.20;99.90
9265;DHT22;4669;49.594;10.958;2023-02-15T15:45:15;3.90;99.90
9265;DHT22;4669;49.594;10.958;2023-02-15T15:50:20;3.80;99.90
9265;DHT22;4669;49.594;10.958;2023-02-15T15:55:23;3.70;99.90
9265;DHT22;4669;49.594;10.958;2023-02-15T16:00:34;3.70;99.90
9265;DHT22;4669;49.594;10.958;2023-02-15T16:05:38;3.60;99.90
9265;DHT22;4669;49.594;10.958;2023-02-15T16:10:41;3.60;99.90
9265;DHT22;4669;49.594;10.958;2023-02-15T16:15:45;3.50;99.90
9265;DHT22;4669;49.594;10.958;2023-02-15T16:20:52;3.40;99.90
9265;DHT22;4669;49.594;10.958;2023-02-15T16:26:00;3.40;99.90
9265;DHT22;4669;49.594;10.958;2023-02-15T16:31:12;3.30;99.90
9265;DHT22;4669;49.594;10.958;2023-02-15T16:36:21;3.30;99.90
9265;DHT22;4669;49.594;10.958;2023-02-15T16:41:25;3.30;99.90
9265;DHT22;4669;49.594;10.958;2023-02-15T16:46:31;3.20;99.90
9265;DHT22;4669;49.594;10.958;2023-02-15T16:51:34;3.20;99.90
9265;DHT22;4669;49.594;10.958;2023-02-15T16:56:36;3.10;99.90
9265;DHT22;4669;49.594;10.958;2023-02-15T17:01:44;3.10;99.90
9265;DHT22;4669;49.594;10.958;2023-02-15T17:06:58;3.00;99.90
9265;DHT22;4669;49.594;10.958;2023-02-15T17:12:00;2.90;99.90
9265;DHT22;4669;49.594;10.958;2023-02-15T17:17:08;2.80;99.90
9265;DHT22;4669;49.594;10.958;2023-02-15T17:22:18;2.80;99.90
9265;DHT22;4669;49.594;10.958;2023-02-15T17:27:24;2.80;99.90
9265;DHT22;4669;49.594;10.958;2023-02-15T17:32:29;2.70;99.90
9265;DHT22;4669;49.594;10.958;2023-02-15T17:37:42;2.60;99.90
9265;DHT22;4669;49.594;10.958;2023-02-15T17:42:44;2.60;99.90
9265;DHT22;4669;49.594;10.958;2023-02-15T17:47:49;2.60;99.90
9265;DHT22;4669;49.594;10.958;2023-02-15T17:52:51;2.50;99.90
9265;DHT22;4669;49.594;10.958;2023-02-15T17:57:55;2.50;99.90
9265;DHT22;4669;49.594;10.958;2023-02-15T18:02:58;2.40;99.90
9265;DHT22;4669;49.594;10.958;2023-02-15T18:08:19;2.50;99.90
9265;DHT22;4669;49.594;10.958;2023-02-15T18:13:39;2.40;99.90
9265;DHT22;4669;49.594;10.958;2023-02-15T18:18:43;2.40;99.90
9265;DHT22;4669;49.594;10.958;2023-02-15T18:23:46;2.30;99.90
9265;DHT22;4669;49.594;10.958;2023-02-15T18:28:48;2.20;99.90
9265;DHT22;4669;49.594;10.958;2023-02-15T18:33:53;2.20;99.90
9265;DHT22;4669;49.594;10.958;2023-02-15T18:38:56;2.20;99.90
9265;DHT22;4669;49.594;10.958;2023-02-15T18:43:58;2.30;99.90
9265;DHT22;4669;49.594;10.958;2023-02-15T18:49:01;2.20;99.90
9265;DHT22;4669;49.594;10.958;2023-02-15T18:54:03;2.20;99.90
9265;DHT22;4669;49.594;10.958;2023-02-15T18:59:05;2.20;99.90
9265;DHT22;4669;49.594;10.958;2023-02-15T19:04:09;2.10;99.90
9265;DHT22;4669;49.594;10.958;2023-02-15T19:09:13;2.10;99.90
9265;DHT22;4669;49.594;10.958;2023-02-15T19:14:23;2.00;99.90
9265;DHT22;4669;49.594;10.958;2023-02-15T19:19:27;1.90;99.90
9265;DHT22;4669;49.594;10.958;2023-02-15T19:24:35;1.90;99.90
9265;DHT22;4669;49.594;10.958;2023-02-15T19:29:38;1.90;99.90
9265;DHT22;4669;49.594;10.958;2023-02-15T19:34:41;2.00;99.90
9265;DHT22;4669;49.594;10.958;2023-02-15T19:39:43;1.90;99.90
9265;DHT22;4669;49.594;10.958;2023-02-15T19:44:45;1.90;99.90
9265;DHT22;4669;49.594;10.958;2023-02-15T19:49:49;1.90;99.90
9265;DHT22;4669;49.594;10.958;2023-02-15T19:54:52;1.90;99.90
9265;DHT22;4669;49.594;10.958;2023-02-15T19:59:55;2.00;99.90
9265;DHT22;4669;49.594;10.958;2023-02-15T20:04:58;2.00;99.90
9265;DHT22;4669;49.594;10.958;2023-02-15T20:10:00;2.10;99.90
9265;DHT22;4669;49.594;10.958;2023-02-15T20:15:17;2.10;99.90
9265;DHT22;4669;49.594;10.958;2023-02-15T20:20:23;2.10;99.90
9265;DHT22;4669;49.594;10.958;2023-02-15T20:25:27;2.20;99.90
9265;DHT22;4669;49.594;10.958;2023-02-15T20:30:31;2.20;99.90
9265;DHT22;4669;49.594;10.958;2023-02-15T20:35:34;2.20;99.90
9265;DHT22;4669;49.594;10.958;2023-02-15T20:40:36;2.20;99.90
9265;DHT22;4669;49.594;10.958;2023-02-15T20:45:59;2.10;99.90
9265;DHT22;4669;49.594;10.958;2023-02-15T20:51:03;2.10;99.90
9265;DHT22;4669;49.594;10.958;2023-02-15T20:56:05;2.10;99.90
9265;DHT22;4669;49.594;10.958;2023-02-15T21:01:09;2.10;99.90
9265;DHT22;4669;49.594;10.958;2023-02-15T21:06:14;2.00;99.90
9265;DHT22;4669;49.594;10.958;2023-02-15T21:11:18;2.00;99.90
9265;DHT22;4669;49.594;10.958;2023-02-15T21:16:20;2.00;99.90
9265;DHT22;4669;49.594;10.958;2023-02-15T21:21:23;2.00;99.90
9265;DHT22;4669;49.594;10.958;2023-02-15T21:26:25;1.90;99.90
9265;DHT22;4669;49.594;10.958;2023-02-15T21:31:27;1.90;99.90
9265;DHT22;4669;49.594;10.958;2023-02-15T21:36:31;1.80;99.90
9265;DHT22;4669;49.594;10.958;2023-02-15T21:41:33;1.90;99.90
9265;DHT22;4669;49.594;10.958;2023-02-15T21:46:52;1.90;99.90
9265;DHT22;4669;49.594;10.958;2023-02-15T21:52:13;1.90;99.90
9265;DHT22;4669;49.594;10.958;2023-02-15T21:57:17;1.90;99.90
9265;DHT22;4669;49.594;10.958;2023-02-15T22:02:26;1.90;99.90
9265;DHT22;4669;49.594;10.958;2023-02-15T22:07:29;1.80;99.90
9265;DHT22;4669;49.594;10.958;2023-02-15T22:12:31;1.80;99.90
9265;DHT22;4669;49.594;10.958;2023-02-15T22:17:33;1.80;99.90
9265;DHT22;4669;49.594;10.958;2023-02-15T22:22:37;1.80;99.90
9265;DHT22;4669;49.594;10.958;2023-02-15T22:27:39;1.80;99.90
9265;DHT22;4669;49.594;10.958;2023-02-15T22:32:42;1.80;99.90
9265;DHT22;4669;49.594;10.958;2023-02-15T22:37:45;1.80;99.90
9265;DHT22;4669;49.594;10.958;2023-02-15T22:42:49;1.80;99.90
9265;DHT22;4669;49.594;10.958;2023-02-15T22:47:53;1.80;99.90
9265;DHT22;4669;49.594;10.958;2023-02-15T22:52:58;1.80;99.90
9265;DHT22;4669;49.594;10.958;2023-02-15T22:58:01;1.80;99.90
